createdAt,value
2018-01-07T00:00:14.214Z,8.56
2018-01-07T00:01:14.670Z,8.63
2018-01-07T00:02:14.416Z,8.66
2018-01-07T00:03:14.700Z,8.63
2018-01-07T00:04:14.710Z,8.6
2018-01-07T00:05:14.451Z,8.64
2018-01-07T00:06:14.739Z,8.64
2018-01-07T00:07:14.757Z,8.61
2018-01-07T00:08:14.770Z,8.64
2018-01-07T00:09:14.777Z,8.7
2018-01-07T00:10:14.790Z,8.55
2018-01-07T00:11:14.803Z,8.58
2018-01-07T00:12:14.271Z,8.48
2018-01-07T00:13:14.557Z,8.53
2018-01-07T00:14:14.570Z,8.49
2018-01-07T00:15:14.858Z,8.55
2018-01-07T00:16:14.872Z,8.53
2018-01-07T00:17:14.336Z,8.52
2018-01-07T00:18:14.622Z,8.56
2018-01-07T00:19:14.911Z,8.56
2018-01-07T00:20:14.923Z,8.6
2018-01-07T00:21:14.942Z,8.52
2018-01-07T00:22:14.950Z,8.53
2018-01-07T00:23:14.689Z,8.49
2018-01-07T00:24:14.974Z,8.53
2018-01-07T00:25:14.990Z,8.53
2018-01-07T00:26:14.727Z,8.49
2018-01-07T00:27:15.015Z,8.46
2018-01-07T00:28:15.029Z,8.52
2018-01-07T00:29:14.765Z,8.56
2018-01-07T00:30:14.778Z,8.49
2018-01-07T00:31:15.076Z,8.49
2018-01-07T00:32:15.085Z,8.51
2018-01-07T00:33:15.097Z,8.53
2018-01-07T00:34:15.108Z,8.51
2018-01-07T00:35:15.117Z,8.52
2018-01-07T00:36:15.130Z,8.48
2018-01-07T00:37:15.197Z,8.51
2018-01-07T00:38:15.162Z,8.51
2018-01-07T00:39:15.403Z,8.49
2018-01-07T00:40:15.247Z,8.48
2018-01-07T00:41:15.201Z,8.46
2018-01-07T00:42:14.673Z,8.51
2018-01-07T00:43:15.226Z,8.48
2018-01-07T00:44:15.241Z,8.51
2018-01-07T00:45:15.250Z,8.48
2018-01-07T00:46:15.633Z,8.46
2018-01-07T00:47:15.347Z,8.46
2018-01-07T00:48:15.556Z,8.48
2018-01-07T00:49:15.305Z,8.48
2018-01-07T00:50:15.315Z,8.48
2018-01-07T00:51:15.360Z,8.51
2018-01-07T00:52:15.342Z,8.46
2018-01-07T00:53:15.363Z,8.51
2018-01-07T00:54:15.369Z,8.48
2018-01-07T00:55:15.386Z,8.51
2018-01-07T00:56:15.395Z,8.48
2018-01-07T00:57:15.409Z,8.49
2018-01-07T00:58:15.153Z,8.41
2018-01-07T00:59:15.434Z,8.45
2018-01-07T01:00:15.445Z,8.46
2018-01-07T01:01:15.462Z,8.51
2018-01-07T01:02:15.476Z,8.48
2018-01-07T01:03:15.495Z,8.44
2018-01-07T01:04:14.949Z,8.45
2018-01-07T01:05:15.513Z,8.53
2018-01-07T01:06:15.248Z,8.48
2018-01-07T01:07:15.540Z,8.37
2018-01-07T01:08:15.276Z,8.41
2018-01-07T01:09:15.563Z,8.42
2018-01-07T01:10:15.311Z,8.45
2018-01-07T01:11:15.598Z,8.42
2018-01-07T01:12:15.654Z,8.37
2018-01-07T01:13:15.616Z,8.45
2018-01-07T01:14:15.356Z,8.46
2018-01-07T01:15:15.369Z,8.46
2018-01-07T01:16:15.384Z,8.42
2018-01-07T01:17:15.670Z,8.46
2018-01-07T01:18:15.406Z,8.42
2018-01-07T01:19:15.703Z,8.46
2018-01-07T01:20:15.714Z,8.42
2018-01-07T01:21:15.451Z,8.37
2018-01-07T01:22:15.737Z,8.38
2018-01-07T01:23:15.743Z,8.44
2018-01-07T01:24:15.764Z,8.37
2018-01-07T01:25:15.225Z,8.44
2018-01-07T01:26:15.787Z,8.41
2018-01-07T01:27:15.799Z,8.44
2018-01-07T01:28:15.817Z,8.46
2018-01-07T01:29:15.823Z,8.44
2018-01-07T01:30:15.836Z,8.42
2018-01-07T01:31:15.576Z,8.38
2018-01-07T01:32:15.865Z,8.31
2018-01-07T01:33:15.330Z,8.38
2018-01-07T01:34:15.895Z,8.41
2018-01-07T01:35:15.909Z,8.36
2018-01-07T01:36:15.637Z,8.31
2018-01-07T01:37:15.930Z,8.37
2018-01-07T01:38:15.664Z,8.36
2018-01-07T01:39:15.952Z,8.34
2018-01-07T01:40:15.693Z,8.3
2018-01-07T01:41:15.433Z,8.37
2018-01-07T01:42:15.716Z,8.37
2018-01-07T01:43:15.769Z,8.31
2018-01-07T01:44:16.021Z,8.34
2018-01-07T01:45:15.758Z,8.34
2018-01-07T01:46:16.059Z,8.34
2018-01-07T01:47:15.780Z,8.31
2018-01-07T01:48:16.070Z,8.33
2018-01-07T01:49:16.085Z,8.37
2018-01-07T01:50:16.106Z,8.34
2018-01-07T01:51:16.110Z,8.31
2018-01-07T01:52:15.850Z,8.33
2018-01-07T01:53:15.587Z,8.33
2018-01-07T01:54:16.149Z,8.33
2018-01-07T01:55:16.161Z,8.2
2018-01-07T01:56:15.902Z,8.23
2018-01-07T01:57:16.190Z,8.28
2018-01-07T01:58:16.210Z,8.19
2018-01-07T01:59:16.222Z,8.19
2018-01-07T02:00:16.230Z,8.26
2018-01-07T02:01:16.239Z,8.23
2018-01-07T02:02:16.253Z,8.23
2018-01-07T02:03:16.272Z,8.19
2018-01-07T02:04:16.285Z,8.34
2018-01-07T02:05:16.290Z,8.18
2018-01-07T02:06:16.308Z,8.18
2018-01-07T02:07:16.320Z,8.18
2018-01-07T02:08:16.052Z,8.24
2018-01-07T02:09:15.791Z,8.2
2018-01-07T02:10:16.359Z,8.13
2018-01-07T02:11:16.093Z,8.2
2018-01-07T02:12:16.385Z,8.18
2018-01-07T02:13:16.128Z,8.27
2018-01-07T02:14:16.404Z,8.27
2018-01-07T02:15:16.420Z,8.24
2018-01-07T02:16:16.432Z,8.2
2018-01-07T02:17:16.447Z,8.26
2018-01-07T02:18:16.459Z,8.23
2018-01-07T02:19:16.195Z,8.23
2018-01-07T02:20:16.490Z,8.23
2018-01-07T02:21:16.505Z,8.2
2018-01-07T02:22:16.234Z,8.27
2018-01-07T02:23:16.260Z,8.19
2018-01-07T02:24:16.262Z,8.24
2018-01-07T02:25:15.999Z,8.19
2018-01-07T02:26:16.290Z,8.15
2018-01-07T02:27:16.026Z,8.24
2018-01-07T02:28:16.598Z,8.2
2018-01-07T02:29:16.604Z,8.18
2018-01-07T02:30:16.340Z,8.16
2018-01-07T02:31:16.079Z,8.16
2018-01-07T02:32:16.644Z,8.18
2018-01-07T02:33:16.100Z,8.13
2018-01-07T02:34:16.663Z,8.18
2018-01-07T02:35:16.682Z,8.16
2018-01-07T02:36:16.690Z,8.16
2018-01-07T02:37:16.429Z,8.13
2018-01-07T02:38:16.441Z,8.12
2018-01-07T02:39:16.729Z,8.15
2018-01-07T02:40:16.471Z,8.1
2018-01-07T02:41:16.755Z,8.16
2018-01-07T02:42:16.495Z,8.13
2018-01-07T02:43:16.778Z,8.15
2018-01-07T02:44:16.517Z,8.16
2018-01-07T02:45:16.806Z,8.18
2018-01-07T02:46:16.817Z,8.13
2018-01-07T02:47:16.828Z,8.15
2018-01-07T02:48:16.569Z,8.13
2018-01-07T02:49:16.588Z,8.13
2018-01-07T02:50:16.879Z,8.12
2018-01-07T02:51:16.887Z,8.16
2018-01-07T02:52:16.896Z,8.13
2018-01-07T02:53:16.373Z,8.23
2018-01-07T02:54:16.919Z,8.16
2018-01-07T02:55:16.382Z,8.12
2018-01-07T02:56:16.951Z,8.03
2018-01-07T02:57:16.410Z,8.08
2018-01-07T02:58:16.976Z,8.09
2018-01-07T02:59:16.988Z,8.1
2018-01-07T03:00:17.004Z,8.09
2018-01-07T03:01:17.012Z,8.03
2018-01-07T03:02:17.024Z,8.1
2018-01-07T03:03:16.824Z,7.95
2018-01-07T03:04:16.782Z,8.09
2018-01-07T03:05:17.068Z,8.08
2018-01-07T03:06:16.802Z,8.12
2018-01-07T03:07:17.113Z,8.03
2018-01-07T03:08:17.148Z,8.01
2018-01-07T03:09:17.111Z,8.09
2018-01-07T03:10:17.125Z,8.09
2018-01-07T03:11:16.863Z,8.09
2018-01-07T03:12:16.599Z,8.08
2018-01-07T03:13:17.218Z,8.09
2018-01-07T03:14:16.898Z,8.08
2018-01-07T03:15:16.916Z,8.12
2018-01-07T03:16:17.201Z,8
2018-01-07T03:17:16.664Z,8.01
2018-01-07T03:18:17.226Z,8.09
2018-01-07T03:19:16.969Z,8.12
2018-01-07T03:20:17.253Z,8
2018-01-07T03:21:17.265Z,8.12
2018-01-07T03:22:17.003Z,8
2018-01-07T03:23:17.339Z,8
2018-01-07T03:24:17.032Z,7.98
2018-01-07T03:25:17.316Z,8.05
2018-01-07T03:26:17.067Z,8.01
2018-01-07T03:27:17.339Z,8.08
2018-01-07T03:28:17.350Z,8.06
2018-01-07T03:29:17.089Z,8.06
2018-01-07T03:30:17.124Z,8
2018-01-07T03:31:17.398Z,7.94
2018-01-07T03:32:17.453Z,8.03
2018-01-07T03:33:17.420Z,8.05
2018-01-07T03:34:17.154Z,8.05
2018-01-07T03:35:17.440Z,8
2018-01-07T03:36:17.456Z,7.98
2018-01-07T03:37:17.470Z,7.98
2018-01-07T03:38:17.478Z,7.95
2018-01-07T03:39:17.496Z,7.98
2018-01-07T03:40:17.512Z,7.98
2018-01-07T03:41:17.522Z,7.94
2018-01-07T03:42:16.979Z,7.97
2018-01-07T03:43:17.543Z,7.97
2018-01-07T03:44:17.283Z,7.95
2018-01-07T03:45:17.572Z,7.94
2018-01-07T03:46:17.582Z,8.01
2018-01-07T03:47:17.318Z,7.98
2018-01-07T03:48:17.608Z,7.95
2018-01-07T03:49:17.622Z,7.97
2018-01-07T03:50:17.639Z,7.93
2018-01-07T03:51:17.383Z,7.98
2018-01-07T03:52:17.689Z,7.97
2018-01-07T03:53:17.726Z,7.88
2018-01-07T03:54:17.405Z,7.93
2018-01-07T03:55:17.420Z,7.94
2018-01-07T03:56:17.709Z,7.98
2018-01-07T03:57:17.725Z,8.03
2018-01-07T03:58:17.461Z,7.94
2018-01-07T03:59:17.751Z,7.95
2018-01-07T04:00:17.758Z,7.91
2018-01-07T04:01:17.786Z,7.83
2018-01-07T04:02:17.817Z,7.85
2018-01-07T04:03:17.798Z,7.93
2018-01-07T04:04:17.808Z,7.87
2018-01-07T04:05:17.545Z,7.8
2018-01-07T04:06:17.562Z,7.83
2018-01-07T04:07:17.570Z,7.77
2018-01-07T04:08:17.585Z,7.85
2018-01-07T04:09:17.873Z,7.77
2018-01-07T04:10:17.888Z,7.8
2018-01-07T04:11:17.896Z,7.9
2018-01-07T04:12:17.634Z,7.82
2018-01-07T04:13:18.001Z,7.8
2018-01-07T04:14:17.939Z,7.79
2018-01-07T04:15:17.674Z,7.82
2018-01-07T04:16:17.409Z,7.82
2018-01-07T04:17:17.976Z,7.76
2018-01-07T04:18:17.985Z,7.79
2018-01-07T04:19:18.003Z,7.8
2018-01-07T04:20:18.010Z,7.76
2018-01-07T04:21:17.479Z,7.76
2018-01-07T04:22:17.759Z,7.82
2018-01-07T04:23:17.509Z,7.82
2018-01-07T04:24:18.059Z,7.8
2018-01-07T04:25:17.800Z,7.85
2018-01-07T04:26:18.084Z,7.87
2018-01-07T04:27:17.825Z,7.77
2018-01-07T04:28:17.839Z,7.69
2018-01-07T04:29:17.852Z,7.7
2018-01-07T04:30:18.134Z,7.69
2018-01-07T04:31:18.151Z,7.69
2018-01-07T04:32:18.157Z,7.7
2018-01-07T04:33:18.172Z,7.69
2018-01-07T04:34:17.913Z,7.69
2018-01-07T04:35:18.204Z,7.67
2018-01-07T04:36:18.211Z,7.72
2018-01-07T04:37:18.223Z,7.72
2018-01-07T04:38:17.959Z,7.67
2018-01-07T04:39:17.977Z,7.72
2018-01-07T04:40:18.268Z,7.73
2018-01-07T04:41:17.998Z,7.58
2018-01-07T04:42:18.287Z,7.66
2018-01-07T04:43:18.022Z,7.69
2018-01-07T04:44:18.310Z,7.63
2018-01-07T04:45:18.052Z,7.67
2018-01-07T04:46:18.141Z,7.69
2018-01-07T04:47:18.348Z,7.63
2018-01-07T04:48:18.085Z,7.56
2018-01-07T04:49:18.099Z,7.66
2018-01-07T04:50:18.570Z,7.66
2018-01-07T04:51:18.418Z,7.66
2018-01-07T04:52:18.422Z,7.58
2018-01-07T04:53:18.157Z,7.6
2018-01-07T04:54:18.752Z,7.69
2018-01-07T04:55:18.448Z,7.6
2018-01-07T04:56:18.190Z,7.57
2018-01-07T04:57:17.928Z,7.61
2018-01-07T04:58:18.486Z,7.63
2018-01-07T04:59:18.225Z,7.61
2018-01-07T05:00:18.525Z,7.57
2018-01-07T05:01:18.249Z,7.5
2018-01-07T05:02:18.768Z,7.56
2018-01-07T05:03:18.549Z,7.53
2018-01-07T05:04:18.290Z,7.63
2018-01-07T05:05:18.300Z,7.6
2018-01-07T05:06:18.585Z,7.5
2018-01-07T05:07:18.601Z,7.5
2018-01-07T05:08:18.632Z,7.48
2018-01-07T05:09:18.623Z,7.5
2018-01-07T05:10:18.635Z,7.51
2018-01-07T05:11:18.708Z,7.5
2018-01-07T05:12:18.959Z,7.48
2018-01-07T05:13:18.978Z,7.53
2018-01-07T05:14:18.411Z,7.53
2018-01-07T05:15:18.700Z,7.48
2018-01-07T05:16:18.436Z,7.54
2018-01-07T05:17:18.723Z,7.48
2018-01-07T05:18:18.737Z,7.53
2018-01-07T05:19:18.745Z,7.47
2018-01-07T05:20:18.809Z,7.43
2018-01-07T05:21:18.770Z,7.48
2018-01-07T05:22:18.509Z,7.45
2018-01-07T05:23:18.529Z,7.42
2018-01-07T05:24:18.534Z,7.43
2018-01-07T05:25:18.545Z,7.45
2018-01-07T05:26:18.833Z,7.39
2018-01-07T05:27:18.849Z,7.39
2018-01-07T05:28:18.857Z,7.5
2018-01-07T05:29:18.598Z,7.39
2018-01-07T05:30:18.333Z,7.38
2018-01-07T05:31:18.897Z,7.36
2018-01-07T05:32:18.358Z,7.35
2018-01-07T05:33:18.924Z,7.38
2018-01-07T05:34:18.660Z,7.36
2018-01-07T05:35:18.947Z,7.38
2018-01-07T05:36:18.973Z,7.35
2018-01-07T05:37:18.970Z,7.36
2018-01-07T05:38:18.982Z,7.38
2018-01-07T05:39:18.995Z,7.33
2018-01-07T05:40:19.006Z,7.38
2018-01-07T05:41:19.018Z,7.35
2018-01-07T05:42:18.755Z,7.32
2018-01-07T05:43:19.043Z,7.36
2018-01-07T05:44:19.052Z,7.29
2018-01-07T05:45:18.793Z,7.36
2018-01-07T05:46:19.079Z,7.28
2018-01-07T05:47:19.093Z,7.25
2018-01-07T05:48:18.829Z,7.33
2018-01-07T05:49:19.116Z,7.32
2018-01-07T05:50:18.857Z,7.31
2018-01-07T05:51:19.138Z,7.31
2018-01-07T05:52:19.155Z,7.32
2018-01-07T05:53:18.617Z,7.24
2018-01-07T05:54:18.903Z,7.2
2018-01-07T05:55:19.188Z,7.18
2018-01-07T05:56:19.202Z,7.2
2018-01-07T05:57:19.213Z,7.25
2018-01-07T05:58:19.226Z,7.2
2018-01-07T05:59:19.238Z,7.17
2018-01-07T06:00:18.975Z,7.2
2018-01-07T06:01:19.276Z,7.28
2018-01-07T06:02:19.000Z,7.2
2018-01-07T06:03:19.293Z,7.13
2018-01-07T06:04:19.707Z,7.25
2018-01-07T06:05:19.312Z,7.28
2018-01-07T06:06:19.325Z,7.17
2018-01-07T06:07:19.336Z,7.17
2018-01-07T06:08:19.348Z,7.18
2018-01-07T06:09:18.810Z,7.17
2018-01-07T06:10:19.369Z,7.17
2018-01-07T06:11:19.392Z,7.15
2018-01-07T06:12:19.126Z,7.24
2018-01-07T06:13:19.407Z,7.15
2018-01-07T06:14:19.144Z,7.18
2018-01-07T06:15:19.482Z,7.15
2018-01-07T06:16:19.171Z,7.2
2018-01-07T06:17:19.463Z,7.2
2018-01-07T06:18:19.483Z,7.23
2018-01-07T06:19:19.485Z,7.15
2018-01-07T06:20:19.492Z,7.15
2018-01-07T06:21:19.508Z,7.18
2018-01-07T06:22:19.247Z,7.18
2018-01-07T06:23:19.529Z,7.17
2018-01-07T06:24:19.590Z,7.15
2018-01-07T06:25:19.003Z,7.17
2018-01-07T06:26:19.565Z,7.13
2018-01-07T06:27:19.617Z,7.14
2018-01-07T06:28:19.317Z,7.15
2018-01-07T06:29:19.650Z,7.23
2018-01-07T06:30:19.342Z,7.17
2018-01-07T06:31:19.635Z,7.23
2018-01-07T06:32:19.363Z,7.17
2018-01-07T06:33:19.653Z,7.13
2018-01-07T06:34:19.390Z,7.15
2018-01-07T06:35:19.398Z,7.13
2018-01-07T06:36:19.414Z,7.15
2018-01-07T06:37:19.422Z,7.15
2018-01-07T06:38:19.710Z,7.18
2018-01-07T06:39:19.446Z,7.14
2018-01-07T06:40:19.746Z,7.17
2018-01-07T06:41:19.471Z,7.13
2018-01-07T06:42:19.761Z,7.2
2018-01-07T06:43:19.770Z,7.1
2018-01-07T06:44:19.885Z,7.13
2018-01-07T06:45:19.793Z,7.15
2018-01-07T06:46:19.812Z,7.07
2018-01-07T06:47:19.823Z,7.1
2018-01-07T06:48:19.832Z,7.1
2018-01-07T06:49:19.842Z,7.13
2018-01-07T06:50:19.859Z,7.1
2018-01-07T06:51:19.878Z,7.05
2018-01-07T06:52:19.608Z,7.05
2018-01-07T06:53:19.629Z,7.13
2018-01-07T06:54:19.956Z,7.1
2018-01-07T06:55:19.919Z,7.1
2018-01-07T06:56:19.927Z,7.05
2018-01-07T06:57:19.942Z,7.11
2018-01-07T06:58:19.952Z,7.03
2018-01-07T06:59:20.022Z,7.13
2018-01-07T07:00:19.702Z,7.03
2018-01-07T07:01:19.728Z,7.06
2018-01-07T07:02:19.731Z,7.15
2018-01-07T07:03:20.012Z,7
2018-01-07T07:04:20.074Z,7.03
2018-01-07T07:05:20.039Z,7.02
2018-01-07T07:06:19.772Z,7.03
2018-01-07T07:07:19.785Z,7
2018-01-07T07:08:20.069Z,7.03
2018-01-07T07:09:20.084Z,7.02
2018-01-07T07:10:20.099Z,7.02
2018-01-07T07:11:20.106Z,7.1
2018-01-07T07:12:19.846Z,7.03
2018-01-07T07:13:20.133Z,7.06
2018-01-07T07:14:19.596Z,7.02
2018-01-07T07:15:20.155Z,7.05
2018-01-07T07:16:19.619Z,7.07
2018-01-07T07:17:20.181Z,7.03
2018-01-07T07:18:20.193Z,7.02
2018-01-07T07:19:19.930Z,7.06
2018-01-07T07:20:19.663Z,7.02
2018-01-07T07:21:20.227Z,7.06
2018-01-07T07:22:20.242Z,7.06
2018-01-07T07:23:19.990Z,7.05
2018-01-07T07:24:19.989Z,7.13
2018-01-07T07:25:20.279Z,7.03
2018-01-07T07:26:20.011Z,7.02
2018-01-07T07:27:20.301Z,7.11
2018-01-07T07:28:20.315Z,7
2018-01-07T07:29:20.053Z,7.06
2018-01-07T07:30:20.056Z,7.06
2018-01-07T07:31:20.345Z,7.1
2018-01-07T07:32:20.084Z,7.11
2018-01-07T07:33:20.382Z,7.11
2018-01-07T07:34:19.831Z,7
2018-01-07T07:35:20.120Z,7.06
2018-01-07T07:36:19.853Z,7.03
2018-01-07T07:37:20.419Z,7.02
2018-01-07T07:38:20.432Z,7.03
2018-01-07T07:39:20.167Z,7.03
2018-01-07T07:40:20.453Z,6.92
2018-01-07T07:41:20.469Z,7
2018-01-07T07:42:20.478Z,7.05
2018-01-07T07:43:20.503Z,6.92
2018-01-07T07:44:20.242Z,6.92
2018-01-07T07:45:20.511Z,6.92
2018-01-07T07:46:20.254Z,7.05
2018-01-07T07:47:20.534Z,6.93
2018-01-07T07:48:20.271Z,7.06
2018-01-07T07:49:20.564Z,6.95
2018-01-07T07:50:20.299Z,7
2018-01-07T07:51:20.584Z,7
2018-01-07T07:52:20.608Z,7.06
2018-01-07T07:53:20.337Z,6.96
2018-01-07T07:54:20.347Z,7.03
2018-01-07T07:55:20.354Z,7.05
2018-01-07T07:56:20.373Z,6.97
2018-01-07T07:57:20.388Z,7
2018-01-07T07:58:20.666Z,7.05
2018-01-07T07:59:20.679Z,6.99
2018-01-07T08:00:20.687Z,7.07
2018-01-07T08:01:20.706Z,7.05
2018-01-07T08:02:20.196Z,7.03
2018-01-07T08:03:20.730Z,6.93
2018-01-07T08:04:20.744Z,7.05
2018-01-07T08:05:20.760Z,6.95
2018-01-07T08:06:20.818Z,6.92
2018-01-07T08:07:20.772Z,6.99
2018-01-07T08:08:20.788Z,7
2018-01-07T08:09:20.856Z,7.02
2018-01-07T08:10:20.813Z,6.95
2018-01-07T08:11:20.823Z,6.97
2018-01-07T08:12:20.844Z,6.95
2018-01-07T08:13:20.847Z,6.95
2018-01-07T08:14:20.858Z,7.06
2018-01-07T08:15:20.868Z,6.95
2018-01-07T08:16:20.882Z,7.05
2018-01-07T08:17:20.891Z,6.92
2018-01-07T08:18:20.638Z,6.92
2018-01-07T08:19:20.927Z,6.92
2018-01-07T08:20:20.651Z,6.92
2018-01-07T08:21:20.940Z,6.93
2018-01-07T08:22:20.955Z,6.88
2018-01-07T08:23:20.696Z,6.88
2018-01-07T08:24:20.977Z,6.88
2018-01-07T08:25:20.992Z,6.99
2018-01-07T08:26:21.023Z,6.88
2018-01-07T08:27:21.008Z,6.93
2018-01-07T08:28:20.470Z,6.88
2018-01-07T08:29:20.857Z,6.92
2018-01-07T08:30:21.102Z,6.95
2018-01-07T08:31:21.059Z,6.93
2018-01-07T08:32:20.797Z,6.93
2018-01-07T08:33:20.806Z,6.96
2018-01-07T08:34:20.870Z,6.95
2018-01-07T08:35:20.831Z,6.88
2018-01-07T08:36:20.842Z,6.87
2018-01-07T08:37:20.579Z,6.93
2018-01-07T08:38:21.150Z,6.95
2018-01-07T08:39:20.875Z,6.95
2018-01-07T08:40:20.886Z,6.99
2018-01-07T08:41:20.897Z,6.87
2018-01-07T08:42:21.193Z,6.93
2018-01-07T08:43:21.199Z,6.92
2018-01-07T08:44:21.213Z,6.92
2018-01-07T08:45:21.222Z,6.95
2018-01-07T08:46:21.237Z,6.93
2018-01-07T08:47:21.245Z,6.89
2018-01-07T08:48:21.258Z,6.95
2018-01-07T08:49:20.997Z,6.89
2018-01-07T08:50:21.010Z,6.89
2018-01-07T08:51:21.030Z,6.89
2018-01-07T08:52:20.758Z,6.93
2018-01-07T08:53:21.040Z,6.87
2018-01-07T08:54:21.054Z,6.85
2018-01-07T08:55:21.068Z,6.79
2018-01-07T08:56:20.802Z,6.89
2018-01-07T08:57:21.089Z,6.88
2018-01-07T08:58:21.379Z,6.88
2018-01-07T08:59:21.472Z,6.88
2018-01-07T09:00:21.400Z,6.87
2018-01-07T09:01:21.422Z,6.93
2018-01-07T09:02:21.433Z,6.87
2018-01-07T09:03:20.887Z,6.87
2018-01-07T09:04:21.552Z,6.88
2018-01-07T09:05:21.459Z,6.88
2018-01-07T09:06:21.195Z,6.87
2018-01-07T09:07:21.488Z,6.93
2018-01-07T09:08:21.501Z,6.93
2018-01-07T09:09:21.520Z,6.93
2018-01-07T09:10:21.520Z,6.84
2018-01-07T09:11:21.529Z,6.92
2018-01-07T09:12:21.268Z,6.89
2018-01-07T09:13:21.559Z,6.92
2018-01-07T09:14:21.292Z,6.95
2018-01-07T09:15:21.575Z,6.92
2018-01-07T09:16:21.595Z,6.89
2018-01-07T09:17:21.049Z,6.88
2018-01-07T09:18:21.610Z,6.87
2018-01-07T09:19:21.714Z,6.93
2018-01-07T09:20:21.638Z,6.92
2018-01-07T09:21:21.650Z,6.92
2018-01-07T09:22:21.390Z,6.87
2018-01-07T09:23:21.677Z,6.92
2018-01-07T09:24:21.410Z,6.89
2018-01-07T09:25:21.782Z,6.87
2018-01-07T09:26:21.710Z,6.92
2018-01-07T09:27:21.729Z,6.95
2018-01-07T09:28:21.739Z,6.95
2018-01-07T09:29:21.190Z,6.92
2018-01-07T09:30:21.753Z,6.93
2018-01-07T09:31:21.770Z,6.92
2018-01-07T09:32:21.781Z,6.93
2018-01-07T09:33:21.513Z,6.87
2018-01-07T09:34:21.248Z,6.89
2018-01-07T09:35:21.262Z,6.92
2018-01-07T09:36:21.548Z,6.89
2018-01-07T09:37:21.836Z,6.92
2018-01-07T09:38:21.305Z,6.92
2018-01-07T09:39:21.916Z,6.92
2018-01-07T09:40:21.877Z,7
2018-01-07T09:41:21.606Z,6.95
2018-01-07T09:42:21.939Z,6.95
2018-01-07T09:43:21.357Z,7.05
2018-01-07T09:44:21.644Z,6.99
2018-01-07T09:45:21.934Z,7.03
2018-01-07T09:46:21.668Z,7.06
2018-01-07T09:47:21.957Z,7.03
2018-01-07T09:48:21.416Z,7.05
2018-01-07T09:49:21.711Z,7.02
2018-01-07T09:50:22.033Z,7.03
2018-01-07T09:51:22.003Z,7.03
2018-01-07T09:52:22.018Z,7.06
2018-01-07T09:53:22.031Z,6.96
2018-01-07T09:54:21.764Z,7
2018-01-07T09:55:21.777Z,7.06
2018-01-07T09:56:21.787Z,6.93
2018-01-07T09:57:21.804Z,7.11
2018-01-07T09:58:21.809Z,6.99
2018-01-07T09:59:22.102Z,7.11
2018-01-07T10:00:22.110Z,7.03
2018-01-07T10:01:22.134Z,7.06
2018-01-07T10:02:22.132Z,7.05
2018-01-07T10:03:22.146Z,7.03
2018-01-07T10:04:22.159Z,7.06
2018-01-07T10:05:22.170Z,7.03
2018-01-07T10:06:22.185Z,7.03
2018-01-07T10:07:22.194Z,7.06
2018-01-07T10:08:22.211Z,7.11
2018-01-07T10:09:21.985Z,7.06
2018-01-07T10:10:22.241Z,7.02
2018-01-07T10:11:22.240Z,7
2018-01-07T10:12:22.253Z,6.97
2018-01-07T10:13:21.713Z,7.06
2018-01-07T10:14:22.277Z,7.02
2018-01-07T10:15:22.286Z,7.05
2018-01-07T10:16:22.303Z,7.03
2018-01-07T10:17:22.033Z,7.03
2018-01-07T10:18:22.046Z,7.03
2018-01-07T10:19:22.337Z,7.02
2018-01-07T10:20:22.349Z,7.02
2018-01-07T10:21:22.085Z,7.03
2018-01-07T10:22:22.374Z,7.11
2018-01-07T10:23:21.847Z,7.05
2018-01-07T10:24:22.437Z,7.03
2018-01-07T10:25:22.131Z,7.02
2018-01-07T10:26:23.029Z,7.05
2018-01-07T10:27:22.773Z,7.07
2018-01-07T10:28:23.426Z,7.05
2018-01-07T10:29:22.697Z,7.11
2018-01-07T10:30:22.472Z,7.11
2018-01-07T10:31:22.599Z,7
2018-01-07T10:32:22.264Z,7.14
2018-01-07T10:33:22.555Z,7.05
2018-01-07T10:34:22.459Z,7.07
2018-01-07T10:35:22.060Z,7.02
2018-01-07T10:36:22.541Z,7.02
2018-01-07T10:37:23.123Z,7.02
2018-01-07T10:38:22.568Z,7.1
2018-01-07T10:39:22.437Z,7.11
2018-01-07T10:40:23.267Z,7.03
2018-01-07T10:41:23.722Z,7.11
2018-01-07T10:42:30.420Z,7.1
2018-01-07T10:43:22.421Z,7.07
2018-01-07T10:44:40.409Z,7.11
2018-01-07T10:45:22.846Z,7.06
2018-01-07T10:46:27.205Z,7.03
2018-01-07T10:47:22.833Z,7.03
2018-01-07T10:48:24.738Z,7.07
2018-01-07T10:49:28.102Z,7.03
2018-01-07T10:50:26.053Z,7.05
2018-01-07T10:51:27.404Z,7.06
2018-01-07T10:52:26.579Z,7.1
2018-01-07T10:53:28.173Z,7.14
2018-01-07T10:54:40.546Z,7.11
2018-01-07T10:55:23.522Z,7.07
2018-01-07T10:56:27.840Z,7.13
2018-01-07T10:57:34.895Z,7.11
2018-01-07T10:58:41.702Z,7.05
2018-01-07T10:59:41.613Z,7.18
2018-01-07T11:00:24.502Z,7.07
2018-01-07T11:01:31.592Z,7.06
2018-01-07T11:02:45.044Z,7.14
2018-01-07T11:03:30.339Z,7.13
2018-01-07T11:04:26.570Z,7.24
2018-01-07T11:05:27.662Z,7.11
2018-01-07T11:06:33.591Z,7.18
2018-01-07T11:07:26.310Z,7.18
2018-01-07T11:08:27.689Z,7.15
2018-01-07T11:09:34.736Z,7.15
2018-01-07T11:10:33.681Z,7.17
2018-01-07T11:11:26.171Z,7.17
2018-01-07T11:12:27.800Z,7.14
2018-01-07T11:13:26.047Z,7.11
2018-01-07T11:14:27.387Z,7.1
2018-01-07T11:15:24.430Z,7.21
2018-01-07T11:16:31.138Z,7.2
2018-01-07T11:17:35.551Z,7.15
2018-01-07T11:18:29.935Z,7.21
2018-01-07T11:19:25.209Z,7.17
2018-01-07T11:20:24.965Z,7.14
2018-01-07T11:21:23.175Z,7.2
2018-01-07T11:22:26.516Z,7.17
2018-01-07T11:23:28.877Z,7.18
2018-01-07T11:24:34.678Z,7.18
2018-01-07T11:25:27.355Z,7.18
2018-01-07T11:26:27.060Z,7.14
2018-01-07T11:27:46.245Z,7.13
2018-01-07T11:28:33.320Z,7.18
2018-01-07T11:29:31.163Z,7.2
2018-01-07T11:30:26.987Z,7.14
2018-01-07T11:31:30.414Z,7.14
2018-01-07T11:32:36.694Z,7.15
2018-01-07T11:33:37.137Z,7.13
2018-01-07T11:34:39.788Z,7.18
2018-01-07T11:35:26.746Z,7.13
2018-01-07T11:36:25.062Z,7.15
2018-01-07T11:37:26.398Z,7.15
2018-01-07T11:38:28.370Z,7.2
2018-01-07T11:39:34.941Z,7.15
2018-01-07T11:40:26.538Z,7.15
2018-01-07T11:41:23.102Z,7.14
2018-01-07T11:42:23.060Z,7.23
2018-01-07T11:43:23.349Z,7.1
2018-01-07T11:44:23.085Z,7.11
2018-01-07T11:45:23.137Z,7.1
2018-01-07T11:46:23.120Z,7.1
2018-01-07T11:47:23.129Z,7.14
2018-01-07T11:48:23.413Z,7.11
2018-01-07T11:49:23.422Z,7.15
2018-01-07T11:50:23.431Z,7.21
2018-01-07T11:51:23.497Z,7.11
2018-01-07T11:52:23.457Z,7.13
2018-01-07T11:53:23.583Z,7.11
2018-01-07T11:54:23.498Z,7.11
2018-01-07T11:55:23.490Z,7.15
2018-01-07T11:56:23.503Z,7.18
2018-01-07T11:57:23.266Z,7.06
2018-01-07T11:58:23.548Z,7.06
2018-01-07T11:59:23.538Z,7.17
2018-01-07T12:00:23.554Z,7.14
2018-01-07T12:01:23.293Z,7.17
2018-01-07T12:02:23.578Z,7.18
2018-01-07T12:03:23.587Z,7.24
2018-01-07T12:04:23.329Z,7.2
2018-01-07T12:05:23.061Z,7.21
2018-01-07T12:06:23.352Z,7.18
2018-01-07T12:07:23.634Z,7.21
2018-01-07T12:08:23.651Z,7.07
2018-01-07T12:09:23.661Z,7.17
2018-01-07T12:10:23.399Z,7.14
2018-01-07T12:11:23.409Z,7.06
2018-01-07T12:12:23.421Z,7.21
2018-01-07T12:13:23.709Z,7.05
2018-01-07T12:14:23.720Z,7.17
2018-01-07T12:15:23.735Z,7.15
2018-01-07T12:16:23.750Z,7.14
2018-01-07T12:17:23.762Z,7.17
2018-01-07T12:18:23.495Z,7.11
2018-01-07T12:19:23.230Z,7.17
2018-01-07T12:20:23.809Z,7.24
2018-01-07T12:21:23.809Z,7.2
2018-01-07T12:22:23.544Z,7.18
2018-01-07T12:23:23.559Z,7.21
2018-01-07T12:24:23.562Z,7.24
2018-01-07T12:25:23.579Z,7.17
2018-01-07T12:26:23.587Z,7.14
2018-01-07T12:27:23.875Z,7.17
2018-01-07T12:28:23.612Z,7.13
2018-01-07T12:29:23.625Z,7.17
2018-01-07T12:30:23.639Z,7.05
2018-01-07T12:31:23.928Z,7.14
2018-01-07T12:32:23.932Z,7.18
2018-01-07T12:33:23.672Z,7.15
2018-01-07T12:34:23.959Z,7.17
2018-01-07T12:35:23.979Z,7.14
2018-01-07T12:36:23.981Z,7.11
2018-01-07T12:37:23.993Z,7.21
2018-01-07T12:38:23.733Z,7.14
2018-01-07T12:39:24.023Z,7.17
2018-01-07T12:40:24.033Z,7.13
2018-01-07T12:41:24.042Z,7.07
2018-01-07T12:42:23.781Z,7.15
2018-01-07T12:43:23.792Z,7.07
2018-01-07T12:44:23.810Z,7.13
2018-01-07T12:45:24.095Z,7.07
2018-01-07T12:46:24.110Z,7.13
2018-01-07T12:47:23.839Z,7.13
2018-01-07T12:48:24.260Z,7.06
2018-01-07T12:49:23.955Z,7.07
2018-01-07T12:50:24.257Z,7.06
2018-01-07T12:51:24.001Z,7.07
2018-01-07T12:52:24.297Z,7.13
2018-01-07T12:53:24.316Z,7.07
2018-01-07T12:54:24.324Z,7.15
2018-01-07T12:55:24.026Z,7.13
2018-01-07T12:56:24.331Z,7.13
2018-01-07T12:57:24.071Z,7.1
2018-01-07T12:58:24.107Z,7.1
2018-01-07T12:59:24.114Z,7.17
2018-01-07T13:00:24.128Z,7.11
2018-01-07T13:01:23.831Z,7.06
2018-01-07T13:02:24.419Z,7.07
2018-01-07T13:03:24.152Z,7.1
2018-01-07T13:04:24.140Z,7.07
2018-01-07T13:05:24.453Z,7.13
2018-01-07T13:06:24.473Z,7.07
2018-01-07T13:07:24.442Z,7.15
2018-01-07T13:08:24.213Z,7.1
2018-01-07T13:09:24.494Z,7.14
2018-01-07T13:10:24.228Z,7.1
2018-01-07T13:11:24.511Z,7.07
2018-01-07T13:12:24.262Z,7.21
2018-01-07T13:13:24.558Z,7.07
2018-01-07T13:14:24.544Z,7.11
2018-01-07T13:15:24.291Z,7.13
2018-01-07T13:16:24.586Z,7.18
2018-01-07T13:17:24.578Z,7.1
2018-01-07T13:18:24.296Z,7.13
2018-01-07T13:19:24.345Z,7.06
2018-01-07T13:20:24.606Z,7.13
2018-01-07T13:21:24.359Z,7.13
2018-01-07T13:22:24.653Z,7.06